Capao Bonito, Brazil
Current Conditions -  °F | °C
As of 6:00 AM on Sunday 21 Dec 2014 (Local Time) from SBKP Reporting Station
Clear Clear  
Wind Chill: 72°   Ceiling: Unl
Heat Index: 72°   Visibility: 6mi
Dew Point: 68°   Wind: 7mph
Humidity: 88%   Direction: 30°NNE
Pressure: 29.88"   Gusts: NA
Location:  24.03°S, 48.35°W
Report Text: SBKP 210800Z 03006KT CAVOK 22/20 Q1012
Loading
Personal Weather Stations






























Interactive Weather Map New forecast layout! Learn more

10-Day Weather Forecast

Advertisements
Track Severe Weather on mobile